Time;durP1;ratioP1;P1;durP2;ratioP2;P2;SDS_P1;SDS_P2;PMS_P1;PMS_P2;Temp;Humidity;BMP_temperature;BMP_pressure;BME280_temperature;BME280_humidity;BME280_pressure;Samples;Min_cycle;Max_cycle;Signal;HPM_P1;HPM_P2
2022/03/08 00:01:08;;;;;;;7.80;6.10;;;;;;;;;;5097521;28;20442;-62
2022/03/08 00:03:34;;;;;;;9.60;6.10;;;;;;;;;;5097799;28;20815;-62
2022/03/08 00:06:00;;;;;;;9.20;5.60;;;;;;;;;;5097284;28;20173;-62
2022/03/08 00:08:27;;;;;;;6.70;5.43;;;;;;;;;;5097697;28;20468;-62
2022/03/08 00:10:52;;;;;;;12.40;5.83;;;;;;;;;;5097271;28;20407;-62
2022/03/08 00:13:18;;;;;;;9.53;6.00;;;;;;;;;;5097216;28;20490;-62
2022/03/08 00:15:44;;;;;;;7.03;5.57;;;;;;;;;;5097614;28;20657;-62
2022/03/08 00:18:10;;;;;;;6.27;5.57;;;;;;;;;;5097321;28;20562;-62
2022/03/08 00:20:37;;;;;;;6.60;5.60;;;;;;;;;;5097145;28;20419;-62
2022/03/08 00:23:03;;;;;;;6.07;5.20;;;;;;;;;;5078958;28;20177;-62
2022/03/08 00:25:29;;;;;;;8.00;5.10;;;;;;;;;;5097354;28;20430;-62
2022/03/08 00:27:56;;;;;;;5.17;4.57;;;;;;;;;;5097147;28;20515;-62
2022/03/08 00:30:24;;;;;;;7.77;5.27;;;;;;;;;;5079187;28;20445;-62
2022/03/08 00:32:51;;;;;;;10.70;5.33;;;;;;;;;;5097185;28;20787;-62
2022/03/08 00:35:17;;;;;;;7.23;5.20;;;;;;;;;;5097222;28;20948;-62
2022/03/08 00:37:44;;;;;;;7.33;5.30;;;;;;;;;;5096746;28;20935;-62
2022/03/08 00:40:10;;;;;;;11.93;5.80;;;;;;;;;;5097169;28;20459;-62
2022/03/08 00:42:36;;;;;;;6.97;5.63;;;;;;;;;;5078777;28;20925;-62
2022/03/08 00:45:03;;;;;;;7.87;5.47;;;;;;;;;;5097121;28;20416;-62
2022/03/08 00:47:29;;;;;;;6.37;5.43;;;;;;;;;;5096799;28;20677;-62
2022/03/08 00:49:55;;;;;;;10.17;5.60;;;;;;;;;;5097030;28;20443;-62
2022/03/08 00:52:21;;;;;;;8.60;5.70;;;;;;;;;;5097222;28;20551;-62
2022/03/08 00:54:47;;;;;;;9.07;5.70;;;;;;;;;;5096786;28;20174;-62
2022/03/08 00:57:13;;;;;;;7.07;5.30;;;;;;;;;;5096848;28;20201;-62
2022/03/08 00:59:39;;;;;;;6.67;5.03;;;;;;;;;;5096991;28;20187;-62
2022/03/08 01:02:05;;;;;;;8.70;6.00;;;;;;;;;;5097387;28;20216;-62
2022/03/08 01:04:31;;;;;;;7.10;5.17;;;;;;;;;;5096983;28;20188;-62
2022/03/08 01:06:57;;;;;;;8.97;5.67;;;;;;;;;;5095527;28;20272;-62
2022/03/08 01:09:23;;;;;;;5.93;4.90;;;;;;;;;;5096491;28;20250;-62
2022/03/08 01:11:49;;;;;;;9.33;5.60;;;;;;;;;;5096307;28;20173;-62
2022/03/08 01:14:15;;;;;;;6.87;5.27;;;;;;;;;;5096703;28;20455;-62
2022/03/08 01:16:41;;;;;;;8.03;5.30;;;;;;;;;;5077888;28;20201;-62
2022/03/08 01:19:07;;;;;;;6.00;5.40;;;;;;;;;;5096700;28;20181;-62
2022/03/08 01:21:37;;;;;;;6.90;5.40;;;;;;;;;;5100843;28;20735;-62
2022/03/08 01:24:04;;;;;;;6.53;5.43;;;;;;;;;;5106600;28;20437;-64
2022/03/08 01:26:30;;;;;;;5.80;4.90;;;;;;;;;;5087352;28;20439;-62
2022/03/08 01:28:56;;;;;;;9.43;5.43;;;;;;;;;;5088723;28;20414;-62
2022/03/08 01:31:22;;;;;;;6.23;5.30;;;;;;;;;;5105771;28;20236;-62
2022/03/08 01:33:49;;;;;;;7.77;5.10;;;;;;;;;;5106777;28;20414;-63
2022/03/08 01:36:15;;;;;;;6.00;5.27;;;;;;;;;;5106931;28;20431;-62
2022/03/08 01:38:41;;;;;;;8.03;5.37;;;;;;;;;;5088014;28;20453;-63
2022/03/08 01:41:07;;;;;;;6.37;5.23;;;;;;;;;;5108122;28;20403;-62
2022/03/08 01:43:33;;;;;;;6.80;4.93;;;;;;;;;;5108829;28;20410;-62
2022/03/08 01:45:59;;;;;;;7.03;5.43;;;;;;;;;;5108322;28;20178;-63
2022/03/08 01:48:25;;;;;;;8.33;5.87;;;;;;;;;;5108653;28;20520;-63
2022/03/08 01:50:51;;;;;;;6.20;5.40;;;;;;;;;;5107373;28;20252;-62
2022/03/08 01:53:17;;;;;;;6.87;5.23;;;;;;;;;;5106322;28;20169;-63
2022/03/08 01:55:43;;;;;;;8.20;5.37;;;;;;;;;;5087479;28;20558;-62
2022/03/08 01:58:09;;;;;;;7.13;5.67;;;;;;;;;;5105468;28;20435;-62
2022/03/08 02:00:35;;;;;;;6.80;5.23;;;;;;;;;;5087561;28;20411;-62
2022/03/08 02:03:01;;;;;;;8.37;5.03;;;;;;;;;;5106244;28;20181;-62
2022/03/08 02:05:28;;;;;;;6.03;5.43;;;;;;;;;;5087933;28;20479;-62
2022/03/08 02:07:54;;;;;;;7.07;5.30;;;;;;;;;;5105314;28;20217;-62
2022/03/08 02:10:21;;;;;;;6.97;5.40;;;;;;;;;;5107117;28;20403;-63
2022/03/08 02:12:46;;;;;;;6.47;5.37;;;;;;;;;;5106428;28;20411;-62
2022/03/08 02:15:12;;;;;;;7.27;5.40;;;;;;;;;;5107937;28;20403;-62
2022/03/08 02:17:38;;;;;;;5.27;4.73;;;;;;;;;;5087538;28;20584;-62
2022/03/08 02:20:04;;;;;;;6.13;5.40;;;;;;;;;;5106082;28;20177;-62
2022/03/08 02:22:31;;;;;;;8.57;5.87;;;;;;;;;;5105804;28;20173;-63
2022/03/08 02:24:57;;;;;;;7.70;5.50;;;;;;;;;;5106678;28;20435;-62
2022/03/08 02:27:23;;;;;;;8.17;5.17;;;;;;;;;;5105384;28;20469;-62
2022/03/08 02:29:49;;;;;;;7.07;5.10;;;;;;;;;;5105026;28;20183;-62
2022/03/08 02:32:16;;;;;;;8.53;5.40;;;;;;;;;;5087320;28;20188;-63
2022/03/08 02:34:42;;;;;;;6.73;5.27;;;;;;;;;;5104827;28;20486;-62
2022/03/08 02:37:09;;;;;;;6.37;5.13;;;;;;;;;;5105805;28;20431;-62
2022/03/08 02:39:35;;;;;;;7.37;5.50;;;;;;;;;;5104901;28;20411;-62
2022/03/08 02:42:01;;;;;;;13.40;5.20;;;;;;;;;;5105261;28;20475;-62
2022/03/08 02:44:27;;;;;;;8.37;5.87;;;;;;;;;;5106656;28;20407;-64
2022/03/08 02:46:53;;;;;;;8.00;5.30;;;;;;;;;;5105393;28;20473;-62
2022/03/08 02:49:20;;;;;;;9.73;5.90;;;;;;;;;;5097905;28;20403;-61
2022/03/08 02:51:46;;;;;;;7.20;5.53;;;;;;;;;;5095612;28;20315;-62
2022/03/08 02:54:12;;;;;;;6.87;4.97;;;;;;;;;;5095084;28;20502;-62
2022/03/08 02:56:38;;;;;;;7.00;5.23;;;;;;;;;;5076314;28;20966;-62
2022/03/08 02:59:04;;;;;;;8.07;5.37;;;;;;;;;;5095191;28;20177;-62
2022/03/08 03:01:30;;;;;;;7.53;5.90;;;;;;;;;;5094796;28;20498;-62
2022/03/08 03:03:56;;;;;;;8.77;5.60;;;;;;;;;;5076277;28;20927;-62
2022/03/08 03:06:22;;;;;;;7.30;5.57;;;;;;;;;;5094730;28;20235;-60
2022/03/08 03:08:48;;;;;;;7.07;5.50;;;;;;;;;;5094510;28;20423;-62
2022/03/08 03:11:14;;;;;;;7.97;5.87;;;;;;;;;;5094527;28;20279;-62
2022/03/08 03:13:40;;;;;;;8.67;6.10;;;;;;;;;;5094632;28;20185;-62
2022/03/08 03:16:06;;;;;;;7.43;5.60;;;;;;;;;;5094687;28;20409;-62
2022/03/08 03:18:32;;;;;;;7.40;5.20;;;;;;;;;;5098033;28;20184;-62
2022/03/08 03:20:58;;;;;;;6.50;5.80;;;;;;;;;;5103377;28;20187;-62
2022/03/08 03:23:24;;;;;;;9.10;6.20;;;;;;;;;;5103614;28;20482;-62
2022/03/08 03:25:50;;;;;;;8.70;6.07;;;;;;;;;;5101270;28;20180;-62
2022/03/08 03:28:16;;;;;;;7.23;5.97;;;;;;;;;;5094349;28;20208;-62
2022/03/08 03:30:42;;;;;;;6.90;5.67;;;;;;;;;;5096208;28;20252;-62
2022/03/08 03:33:08;;;;;;;7.60;5.97;;;;;;;;;;5098277;28;20181;-62
2022/03/08 03:35:34;;;;;;;7.97;5.90;;;;;;;;;;5079909;28;20415;-62
2022/03/08 03:38:00;;;;;;;8.23;6.10;;;;;;;;;;5098094;28;20201;-62
2022/03/08 03:40:26;;;;;;;9.10;6.00;;;;;;;;;;5098029;28;20660;-62
2022/03/08 03:42:52;;;;;;;7.33;5.77;;;;;;;;;;5097956;28;20407;-63
2022/03/08 03:45:18;;;;;;;7.90;6.27;;;;;;;;;;5079954;28;20600;-62
2022/03/08 03:47:44;;;;;;;8.57;6.00;;;;;;;;;;5079761;28;20681;-62
2022/03/08 03:50:10;;;;;;;6.77;5.67;;;;;;;;;;5098214;28;20188;-62
2022/03/08 03:52:36;;;;;;;7.90;6.43;;;;;;;;;;5098557;28;20179;-62
2022/03/08 03:55:05;;;;;;;10.90;5.90;;;;;;;;;;5098402;28;20403;-62
2022/03/08 03:57:31;;;;;;;8.17;6.20;;;;;;;;;;5098718;28;20521;-62
2022/03/08 03:59:57;;;;;;;6.47;5.60;;;;;;;;;;5098121;28;20449;-62
2022/03/08 04:02:23;;;;;;;7.17;5.87;;;;;;;;;;5098790;28;20177;-62
2022/03/08 04:04:49;;;;;;;9.33;5.97;;;;;;;;;;5098465;28;20788;-62
2022/03/08 04:07:15;;;;;;;8.73;6.60;;;;;;;;;;5080232;28;20217;-62
2022/03/08 04:09:41;;;;;;;9.03;6.33;;;;;;;;;;5112987;28;20244;-62
2022/03/08 04:12:07;;;;;;;10.70;6.47;;;;;;;;;;5120498;28;20435;-62
2022/03/08 04:14:33;;;;;;;9.67;6.33;;;;;;;;;;5102965;28;20184;-62
2022/03/08 04:16:59;;;;;;;8.10;6.20;;;;;;;;;;5120903;22;21013;-65
2022/03/08 04:19:25;;;;;;;8.23;6.10;;;;;;;;;;5078851;28;20181;-62
2022/03/08 04:21:51;;;;;;;13.10;7.87;;;;;;;;;;5097216;28;20407;-64
2022/03/08 04:24:17;;;;;;;8.27;5.97;;;;;;;;;;5096948;28;20914;-64
2022/03/08 04:26:43;;;;;;;7.80;6.30;;;;;;;;;;5097163;28;20479;-64
2022/03/08 04:29:09;;;;;;;9.40;6.50;;;;;;;;;;5096753;28;20764;-64
2022/03/08 04:31:35;;;;;;;8.67;6.50;;;;;;;;;;5078624;28;20185;-64
2022/03/08 04:34:01;;;;;;;8.27;6.63;;;;;;;;;;5097063;28;20415;-63
2022/03/08 04:36:27;;;;;;;8.00;6.37;;;;;;;;;;5096547;28;20243;-63
2022/03/08 04:38:53;;;;;;;10.60;7.10;;;;;;;;;;5097133;28;20176;-64
2022/03/08 04:41:19;;;;;;;9.40;6.33;;;;;;;;;;5095282;28;20506;-64
2022/03/08 04:43:46;;;;;;;8.87;6.47;;;;;;;;;;5096832;28;20326;-63
2022/03/08 04:46:12;;;;;;;11.57;6.60;;;;;;;;;;5078037;28;20453;-64
2022/03/08 04:48:38;;;;;;;8.00;6.30;;;;;;;;;;5096123;28;20462;-64
2022/03/08 04:51:04;;;;;;;9.70;7.23;;;;;;;;;;5096663;28;20188;-64
2022/03/08 04:53:30;;;;;;;11.50;6.73;;;;;;;;;;5078246;28;20751;-63
2022/03/08 04:55:56;;;;;;;8.20;6.77;;;;;;;;;;5077951;28;20204;-65
2022/03/08 04:58:22;;;;;;;12.33;7.40;;;;;;;;;;5096204;28;20215;-64
2022/03/08 05:00:48;;;;;;;10.83;7.00;;;;;;;;;;5077952;28;20657;-64
2022/03/08 05:03:14;;;;;;;10.57;7.50;;;;;;;;;;5077909;28;20192;-64
2022/03/08 05:05:40;;;;;;;10.63;7.10;;;;;;;;;;5077968;28;20239;-63
2022/03/08 05:08:06;;;;;;;8.93;6.80;;;;;;;;;;5095596;28;20201;-64
2022/03/08 05:10:32;;;;;;;8.57;6.97;;;;;;;;;;5096029;28;20177;-64
2022/03/08 05:13:00;;;;;;;10.53;7.57;;;;;;;;;;5095643;28;20407;-63
2022/03/08 05:15:26;;;;;;;12.17;7.93;;;;;;;;;;5095699;28;20442;-63
2022/03/08 05:17:51;;;;;;;10.43;8.47;;;;;;;;;;5095508;28;20849;-62
2022/03/08 05:20:17;;;;;;;10.07;7.43;;;;;;;;;;5095528;28;20184;-63
2022/03/08 05:22:43;;;;;;;11.83;8.03;;;;;;;;;;5077635;28;20580;-65
2022/03/08 05:25:10;;;;;;;11.77;7.50;;;;;;;;;;5077482;28;20440;-63
2022/03/08 05:27:36;;;;;;;11.07;7.07;;;;;;;;;;5095925;28;20201;-63
2022/03/08 05:30:02;;;;;;;10.67;7.70;;;;;;;;;;5077394;28;20498;-64
2022/03/08 05:32:28;;;;;;;12.80;8.50;;;;;;;;;;5095603;28;20196;-64
2022/03/08 05:34:53;;;;;;;12.13;7.73;;;;;;;;;;5077454;28;20263;-63
2022/03/08 05:37:19;;;;;;;11.33;8.00;;;;;;;;;;5077024;28;20201;-65
2022/03/08 05:39:45;;;;;;;11.97;7.93;;;;;;;;;;5095138;28;20177;-65
2022/03/08 05:42:11;;;;;;;17.10;9.00;;;;;;;;;;5095239;28;20188;-64
2022/03/08 05:44:38;;;;;;;13.63;8.13;;;;;;;;;;5077034;28;20194;-65
2022/03/08 05:47:05;;;;;;;11.73;8.93;;;;;;;;;;5095070;28;20204;-64
2022/03/08 05:49:31;;;;;;;17.57;9.20;;;;;;;;;;5094942;28;20438;-65
2022/03/08 05:51:57;;;;;;;12.13;8.33;;;;;;;;;;5076913;28;20827;-65
2022/03/08 05:54:22;;;;;;;13.33;8.17;;;;;;;;;;5094738;28;20199;-65
2022/03/08 05:56:49;;;;;;;11.73;7.77;;;;;;;;;;5094742;28;20193;-63
2022/03/08 05:59:15;;;;;;;15.33;8.10;;;;;;;;;;5095020;28;20674;-63
2022/03/08 06:01:41;;;;;;;10.07;7.33;;;;;;;;;;5076780;28;20419;-65
2022/03/08 06:04:07;;;;;;;10.33;7.50;;;;;;;;;;5094938;28;20439;-64
2022/03/08 06:06:33;;;;;;;11.23;7.10;;;;;;;;;;5094515;28;20466;-64
2022/03/08 06:08:59;;;;;;;8.47;6.77;;;;;;;;;;5094728;28;20238;-65
2022/03/08 06:11:25;;;;;;;11.27;6.83;;;;;;;;;;5095577;28;20185;-64
2022/03/08 06:13:51;;;;;;;9.57;7.37;;;;;;;;;;5094810;28;20184;-64
2022/03/08 06:16:17;;;;;;;12.13;7.47;;;;;;;;;;5094957;28;20536;-65
2022/03/08 06:18:43;;;;;;;13.10;7.33;;;;;;;;;;5094998;28;20484;-64
2022/03/08 06:21:09;;;;;;;12.03;7.20;;;;;;;;;;5094653;28;20179;-64
2022/03/08 06:23:35;;;;;;;12.33;7.70;;;;;;;;;;5094326;28;20195;-65
2022/03/08 06:26:01;;;;;;;12.37;7.73;;;;;;;;;;5094358;28;20180;-64
2022/03/08 06:28:26;;;;;;;9.67;7.83;;;;;;;;;;5094498;28;20262;-64
2022/03/08 06:30:52;;;;;;;16.07;8.20;;;;;;;;;;5094167;28;20666;-64
2022/03/08 06:33:18;;;;;;;11.03;7.80;;;;;;;;;;5094321;28;20204;-64
2022/03/08 06:35:44;;;;;;;13.17;8.20;;;;;;;;;;5094240;28;20445;-64
2022/03/08 06:38:10;;;;;;;16.20;7.83;;;;;;;;;;5075715;28;20249;-65
2022/03/08 06:40:36;;;;;;;12.30;7.37;;;;;;;;;;5094241;28;20196;-62
2022/03/08 06:43:02;;;;;;;11.63;7.60;;;;;;;;;;5076192;28;20177;-64
2022/03/08 06:45:28;;;;;;;14.43;7.97;;;;;;;;;;5094272;28;20256;-65
2022/03/08 06:47:54;;;;;;;13.27;8.13;;;;;;;;;;5093876;28;20591;-64
2022/03/08 06:50:20;;;;;;;14.63;8.37;;;;;;;;;;5075944;28;20637;-62
2022/03/08 06:52:46;;;;;;;12.33;7.77;;;;;;;;;;5093945;28;20548;-65
2022/03/08 06:55:13;;;;;;;8.70;6.83;;;;;;;;;;5094926;28;20169;-64
2022/03/08 06:57:39;;;;;;;12.43;7.07;;;;;;;;;;5075570;28;20435;-64
2022/03/08 07:00:07;;;;;;;9.77;7.40;;;;;;;;;;5093780;28;20487;-64
2022/03/08 07:02:33;;;;;;;12.83;7.67;;;;;;;;;;5075754;28;20421;-64
2022/03/08 07:04:59;;;;;;;15.07;8.00;;;;;;;;;;5074869;28;20431;-63
2022/03/08 07:07:25;;;;;;;13.13;7.57;;;;;;;;;;5093593;28;20254;-64
2022/03/08 07:09:51;;;;;;;12.43;7.50;;;;;;;;;;5075639;28;20180;-65
2022/03/08 07:12:17;;;;;;;9.40;7.50;;;;;;;;;;5093907;28;20663;-64
2022/03/08 07:14:43;;;;;;;9.83;6.90;;;;;;;;;;5093627;28;20179;-64
2022/03/08 07:17:09;;;;;;;10.70;7.47;;;;;;;;;;5093523;28;20240;-65
2022/03/08 07:19:35;;;;;;;10.27;7.40;;;;;;;;;;5075369;28;20439;-65
2022/03/08 07:22:01;;;;;;;12.80;7.70;;;;;;;;;;5093667;28;20411;-64
2022/03/08 07:24:26;;;;;;;11.67;7.67;;;;;;;;;;5093674;28;20256;-65
2022/03/08 07:26:53;;;;;;;11.43;7.53;;;;;;;;;;5093862;28;20192;-64
2022/03/08 07:29:19;;;;;;;13.60;6.97;;;;;;;;;;5093883;28;20202;-64
2022/03/08 07:31:45;;;;;;;20.53;7.47;;;;;;;;;;5075925;28;20463;-66
2022/03/08 07:34:11;;;;;;;8.97;7.07;;;;;;;;;;5076060;28;20212;-64
2022/03/08 07:36:38;;;;;;;9.20;6.87;;;;;;;;;;5075871;28;20435;-63
2022/03/08 07:39:04;;;;;;;11.20;7.17;;;;;;;;;;5075768;28;20176;-66
2022/03/08 07:41:30;;;;;;;16.27;8.37;;;;;;;;;;5094437;28;20640;-64
2022/03/08 07:43:56;;;;;;;9.67;6.10;;;;;;;;;;5076001;28;20184;-64
2022/03/08 07:46:22;;;;;;;10.53;7.50;;;;;;;;;;5093944;28;20205;-61
2022/03/08 07:48:48;;;;;;;11.43;6.70;;;;;;;;;;5094146;28;20197;-64
2022/03/08 07:51:14;;;;;;;10.77;6.63;;;;;;;;;;5094321;28;20261;-64
2022/03/08 07:53:40;;;;;;;10.23;6.40;;;;;;;;;;5094347;28;20612;-63
2022/03/08 07:56:06;;;;;;;9.23;6.43;;;;;;;;;;5094296;28;20549;-64
2022/03/08 07:58:31;;;;;;;12.03;7.03;;;;;;;;;;5094873;28;20586;-63
2022/03/08 08:00:57;;;;;;;11.10;7.23;;;;;;;;;;5094146;28;20174;-63
2022/03/08 08:03:23;;;;;;;10.70;6.50;;;;;;;;;;5094207;28;20655;-64
2022/03/08 08:05:49;;;;;;;9.50;6.57;;;;;;;;;;5094312;28;20185;-63
2022/03/08 08:08:15;;;;;;;7.70;6.50;;;;;;;;;;5075699;28;20201;-63
2022/03/08 08:10:41;;;;;;;9.80;5.80;;;;;;;;;;5093722;28;20177;-63
2022/03/08 08:13:07;;;;;;;11.43;5.63;;;;;;;;;;5093495;28;20540;-63
2022/03/08 08:15:36;;;;;;;6.70;5.43;;;;;;;;;;5094269;28;20252;-64
2022/03/08 08:18:02;;;;;;;8.87;6.10;;;;;;;;;;5097519;28;20208;-65
2022/03/08 08:20:28;;;;;;;8.17;6.33;;;;;;;;;;5097919;28;20177;-63
2022/03/08 08:22:54;;;;;;;10.80;6.87;;;;;;;;;;5098219;28;20183;-63
2022/03/08 08:25:20;;;;;;;11.87;7.07;;;;;;;;;;5079836;28;20259;-63
2022/03/08 08:27:46;;;;;;;9.70;6.33;;;;;;;;;;5079475;28;20232;-63
2022/03/08 08:30:12;;;;;;;15.30;7.50;;;;;;;;;;5097546;28;20639;-63
2022/03/08 08:32:39;;;;;;;12.43;7.83;;;;;;;;;;5098190;28;20268;-64
2022/03/08 08:35:05;;;;;;;12.13;7.50;;;;;;;;;;5079357;28;20177;-63
2022/03/08 08:37:31;;;;;;;10.57;7.13;;;;;;;;;;5097300;28;20249;-64
2022/03/08 08:39:57;;;;;;;12.53;6.37;;;;;;;;;;5097369;28;20214;-62
2022/03/08 08:42:23;;;;;;;9.70;5.40;;;;;;;;;;5097580;28;20594;-63
2022/03/08 08:44:49;;;;;;;11.97;6.27;;;;;;;;;;5097221;28;20263;-64
2022/03/08 08:47:15;;;;;;;6.93;5.30;;;;;;;;;;5079011;28;20213;-63
2022/03/08 08:49:41;;;;;;;8.07;4.43;;;;;;;;;;5097188;28;20177;-64
2022/03/08 08:52:08;;;;;;;9.83;5.00;;;;;;;;;;5097241;28;20178;-64
2022/03/08 08:54:34;;;;;;;8.37;5.17;;;;;;;;;;5097715;28;20177;-64
2022/03/08 08:57:00;;;;;;;8.30;4.67;;;;;;;;;;5096404;28;20223;-63
2022/03/08 08:59:26;;;;;;;5.17;3.70;;;;;;;;;;5078936;28;20633;-64
2022/03/08 09:01:52;;;;;;;5.40;4.23;;;;;;;;;;5097283;28;20238;-62
2022/03/08 09:04:18;;;;;;;10.10;4.97;;;;;;;;;;5097638;28;20184;-64
2022/03/08 09:06:44;;;;;;;5.97;3.80;;;;;;;;;;5078681;28;20197;-63
2022/03/08 09:09:10;;;;;;;6.30;4.50;;;;;;;;;;5097034;28;20188;-64
2022/03/08 09:11:36;;;;;;;5.53;4.23;;;;;;;;;;5097319;28;20209;-62
2022/03/08 09:14:04;;;;;;;4.80;3.90;;;;;;;;;;5078947;28;20184;-64
2022/03/08 09:16:30;;;;;;;6.27;4.63;;;;;;;;;;5097073;28;20287;-64
2022/03/08 09:18:56;;;;;;;8.30;4.17;;;;;;;;;;5078998;28;20219;-65
2022/03/08 09:21:22;;;;;;;7.57;3.97;;;;;;;;;;5096847;28;20593;-64
2022/03/08 09:23:48;;;;;;;7.07;4.00;;;;;;;;;;5078939;28;20177;-62
2022/03/08 09:26:14;;;;;;;4.83;4.33;;;;;;;;;;5078726;28;20197;-64
2022/03/08 09:28:40;;;;;;;4.50;3.67;;;;;;;;;;5096252;28;20207;-63
2022/03/08 09:31:06;;;;;;;5.90;4.47;;;;;;;;;;5097014;28;20547;-63
2022/03/08 09:33:32;;;;;;;14.30;4.47;;;;;;;;;;5097756;28;20185;-63
2022/03/08 09:35:58;;;;;;;7.70;4.83;;;;;;;;;;5079894;28;20650;-63
2022/03/08 09:38:24;;;;;;;6.27;4.37;;;;;;;;;;5096927;28;20181;-63
2022/03/08 09:40:51;;;;;;;6.43;4.03;;;;;;;;;;5078637;28;20188;-65
2022/03/08 09:43:17;;;;;;;4.53;4.03;;;;;;;;;;5096237;28;20260;-64
2022/03/08 09:45:43;;;;;;;7.47;3.93;;;;;;;;;;5095703;28;20177;-63
2022/03/08 09:48:09;;;;;;;5.10;3.80;;;;;;;;;;5078200;28;20208;-62
2022/03/08 09:50:36;;;;;;;4.70;3.97;;;;;;;;;;5078982;28;20177;-62
2022/03/08 09:53:03;;;;;;;4.10;3.70;;;;;;;;;;5078388;28;20200;-63
2022/03/08 09:55:29;;;;;;;7.70;4.53;;;;;;;;;;5078443;28;20177;-64
2022/03/08 09:57:55;;;;;;;6.57;4.07;;;;;;;;;;5095649;28;20270;-65
2022/03/08 10:00:23;;;;;;;4.03;3.63;;;;;;;;;;5096732;28;20633;-63
2022/03/08 10:02:51;;;;;;;6.67;4.00;;;;;;;;;;5097506;28;20204;-65
2022/03/08 10:05:17;;;;;;;4.70;4.23;;;;;;;;;;5077145;28;20177;-65
2022/03/08 10:08:02;;;;;;;4.77;4.00;;;;;;;;;;5077042;28;20268;-63
2022/03/08 10:10:32;;;;;;;6.57;3.67;;;;;;;;;;5095794;28;20181;-65
2022/03/08 10:12:58;;;;;;;6.77;3.97;;;;;;;;;;5077959;28;20212;-64
2022/03/08 10:15:24;;;;;;;8.27;5.07;;;;;;;;;;5096205;28;20188;-64
2022/03/08 10:17:50;;;;;;;4.43;3.60;;;;;;;;;;5077013;28;20295;-64
2022/03/08 10:20:28;;;;;;;9.07;4.30;;;;;;;;;;5094842;28;20181;-64
2022/03/08 10:22:54;;;;;;;5.47;4.40;;;;;;;;;;5095812;28;20160;-64
2022/03/08 10:25:22;;;;;;;7.07;4.17;;;;;;;;;;5096186;28;20173;-64
2022/03/08 10:27:54;;;;;;;6.13;4.53;;;;;;;;;;5078338;28;20204;-64
2022/03/08 10:30:21;;;;;;;5.97;4.23;;;;;;;;;;5095747;28;20183;-64
2022/03/08 10:32:48;;;;;;;7.00;4.90;;;;;;;;;;5077120;28;20180;-65
2022/03/08 10:35:24;;;;;;;6.80;4.20;;;;;;;;;;5076927;28;20613;-65
2022/03/08 10:37:50;;;;;;;7.40;4.80;;;;;;;;;;5077149;28;20218;-66
2022/03/08 10:40:22;;;;;;;3.83;3.37;;;;;;;;;;5075974;28;20616;-66
2022/03/08 10:42:57;;;;;;;3.67;2.97;;;;;;;;;;5077022;28;20177;-64
2022/03/08 10:45:26;;;;;;;8.37;4.40;;;;;;;;;;5095916;28;20164;-65
2022/03/08 10:47:53;;;;;;;8.93;5.17;;;;;;;;;;5094482;28;20197;-66
2022/03/08 10:50:21;;;;;;;5.87;3.60;;;;;;;;;;5094294;28;20222;-65
2022/03/08 10:52:49;;;;;;;7.33;4.43;;;;;;;;;;5094824;28;20169;-65
2022/03/08 10:55:16;;;;;;;5.23;4.30;;;;;;;;;;5094781;28;20630;-66
2022/03/08 10:57:43;;;;;;;5.63;4.83;;;;;;;;;;5093513;28;20262;-65
2022/03/08 11:00:12;;;;;;;5.40;4.10;;;;;;;;;;5093603;28;20177;-66
2022/03/08 11:02:58;;;;;;;5.97;4.33;;;;;;;;;;5075489;28;20561;-66
2022/03/08 11:05:25;;;;;;;5.30;4.53;;;;;;;;;;5077009;28;20197;-65
2022/03/08 11:07:52;;;;;;;7.10;4.87;;;;;;;;;;5075150;28;20205;-65
2022/03/08 11:10:18;;;;;;;4.50;3.83;;;;;;;;;;5075456;28;20181;-65
2022/03/08 11:12:45;;;;;;;8.23;5.53;;;;;;;;;;5093433;28;20181;-66
2022/03/08 11:15:13;;;;;;;10.63;4.50;;;;;;;;;;5075657;28;20225;-65
2022/03/08 11:17:39;;;;;;;5.27;3.60;;;;;;;;;;5075298;28;20213;-66
2022/03/08 11:20:07;;;;;;;5.93;3.97;;;;;;;;;;5093938;28;20181;-65
2022/03/08 11:22:33;;;;;;;8.90;5.37;;;;;;;;;;5093689;28;20271;-66
2022/03/08 11:24:59;;;;;;;9.63;4.00;;;;;;;;;;5075858;28;20191;-67
2022/03/08 11:27:26;;;;;;;6.97;4.83;;;;;;;;;;5093341;28;20254;-64
2022/03/08 11:29:52;;;;;;;9.40;4.90;;;;;;;;;;5088443;22;20229;-66
2022/03/08 11:32:34;;;;;;;6.33;4.03;;;;;;;;;;5074953;28;20184;-64
2022/03/08 11:35:03;;;;;;;7.03;4.63;;;;;;;;;;5093393;28;20251;-66
2022/03/08 11:37:30;;;;;;;5.80;3.77;;;;;;;;;;5093445;28;20184;-66
2022/03/08 11:40:07;;;;;;;5.33;4.43;;;;;;;;;;5074979;28;20205;-66
2022/03/08 11:42:34;;;;;;;8.53;5.67;;;;;;;;;;5093736;28;20272;-66
2022/03/08 11:45:03;;;;;;;12.17;5.97;;;;;;;;;;5093262;28;20173;-66
2022/03/08 11:47:55;;;;;;;8.10;4.83;;;;;;;;;;5093015;28;20660;-66
2022/03/08 11:50:25;;;;;;;7.47;5.47;;;;;;;;;;5088559;28;20220;-66
2022/03/08 11:52:52;;;;;;;5.10;4.60;;;;;;;;;;5097608;28;20173;-64
2022/03/08 11:55:24;;;;;;;6.07;4.87;;;;;;;;;;5078643;28;20177;-64
2022/03/08 11:57:50;;;;;;;6.63;5.33;;;;;;;;;;5097208;28;20172;-64
2022/03/08 12:00:27;;;;;;;11.17;6.00;;;;;;;;;;5078540;28;20287;-66
2022/03/08 12:02:54;;;;;;;5.57;4.80;;;;;;;;;;5078704;28;20199;-64
2022/03/08 12:05:39;;;;;;;4.87;4.30;;;;;;;;;;5096731;28;20526;-65
2022/03/08 12:08:23;;;;;;;5.57;4.70;;;;;;;;;;5096801;28;20200;-65
2022/03/08 12:10:53;;;;;;;5.13;4.10;;;;;;;;;;5096711;28;20200;-65
2022/03/08 12:13:23;;;;;;;5.20;4.30;;;;;;;;;;5096611;28;20176;-65
2022/03/08 12:16:10;;;;;;;5.90;5.20;;;;;;;;;;5078541;28;20610;-65
2022/03/08 12:18:41;;;;;;;6.83;4.87;;;;;;;;;;5078427;28;20185;-65
2022/03/08 12:21:28;;;;;;;9.87;5.73;;;;;;;;;;5078335;28;20213;-64
2022/03/08 12:23:54;;;;;;;7.73;5.23;;;;;;;;;;5096533;28;20169;-65
2022/03/08 12:26:53;;;;;;;5.73;4.77;;;;;;;;;;5096588;28;20580;-64
2022/03/08 12:29:21;;;;;;;5.07;4.50;;;;;;;;;;5041094;28;20196;-65
2022/03/08 12:31:57;;;;;;;7.57;5.27;;;;;;;;;;5076884;28;20181;-64
2022/03/08 12:34:36;;;;;;;7.00;5.50;;;;;;;;;;5097879;28;20179;-64
2022/03/08 12:37:02;;;;;;;6.60;4.60;;;;;;;;;;5100050;28;20229;-64
2022/03/08 12:39:43;;;;;;;5.50;4.67;;;;;;;;;;5100371;28;20193;-64
2022/03/08 12:42:16;;;;;;;5.50;4.00;;;;;;;;;;5100264;28;20177;-66
2022/03/08 12:44:49;;;;;;;5.00;4.50;;;;;;;;;;5095619;28;20158;-65
2022/03/08 12:47:15;;;;;;;5.77;4.63;;;;;;;;;;5095370;28;20661;-64
2022/03/08 12:49:42;;;;;;;9.67;4.53;;;;;;;;;;5094831;28;20665;-64
2022/03/08 12:52:09;;;;;;;7.13;4.33;;;;;;;;;;5094971;28;20274;-64
2022/03/08 12:54:36;;;;;;;6.23;4.73;;;;;;;;;;5094819;28;20252;-64
2022/03/08 12:57:03;;;;;;;5.80;4.10;;;;;;;;;;5094939;28;20181;-64
2022/03/08 12:59:29;;;;;;;7.70;5.10;;;;;;;;;;5076473;28;20207;-64
2022/03/08 13:02:06;;;;;;;6.53;4.57;;;;;;;;;;5093979;28;20181;-64
2022/03/08 13:04:32;;;;;;;5.10;4.60;;;;;;;;;;5094806;28;20165;-64
2022/03/08 13:07:18;;;;;;;8.20;4.70;;;;;;;;;;5094478;28;20204;-64
2022/03/08 13:09:50;;;;;;;5.43;4.50;;;;;;;;;;5076432;28;20229;-64
2022/03/08 13:12:20;;;;;;;5.70;4.43;;;;;;;;;;5076188;28;20551;-64
2022/03/08 13:15:05;;;;;;;5.20;4.37;;;;;;;;;;5095590;28;20673;-64
2022/03/08 13:17:31;;;;;;;5.80;4.33;;;;;;;;;;5095972;28;20185;-64
2022/03/08 13:19:57;;;;;;;5.07;4.57;;;;;;;;;;5096333;28;20204;-64
2022/03/08 13:22:23;;;;;;;6.83;4.60;;;;;;;;;;5076509;28;20177;-64
2022/03/08 13:25:10;;;;;;;5.00;4.50;;;;;;;;;;5094572;28;20184;-64
2022/03/08 13:27:49;;;;;;;8.43;5.13;;;;;;;;;;5094106;28;20213;-64
2022/03/08 13:30:16;;;;;;;6.57;3.97;;;;;;;;;;5057965;28;1039063;-64
2022/03/08 13:32:42;;;;;;;16.30;5.50;;;;;;;;;;5095502;28;20207;-64
2022/03/08 13:35:10;;;;;;;5.73;4.30;;;;;;;;;;5096122;28;20188;-64
2022/03/08 13:37:49;;;;;;;5.43;4.27;;;;;;;;;;5078763;28;20663;-64
2022/03/08 13:40:27;;;;;;;6.73;4.30;;;;;;;;;;5096290;28;20211;-64
2022/03/08 13:42:57;;;;;;;5.77;4.70;;;;;;;;;;5097319;28;20306;-64
2022/03/08 13:45:23;;;;;;;4.80;4.13;;;;;;;;;;5077908;28;20187;-65
2022/03/08 13:47:52;;;;;;;7.53;4.50;;;;;;;;;;5076678;28;20298;-65
2022/03/08 13:50:19;;;;;;;6.67;4.53;;;;;;;;;;5094705;28;20238;-64
2022/03/08 13:52:49;;;;;;;6.23;4.83;;;;;;;;;;5094826;28;20169;-64
2022/03/08 13:55:15;;;;;;;5.73;4.67;;;;;;;;;;5076586;28;20177;-64
2022/03/08 13:57:52;;;;;;;7.87;4.87;;;;;;;;;;5095003;28;20645;-64
2022/03/08 14:00:18;;;;;;;7.20;5.07;;;;;;;;;;5094528;28;20200;-64
2022/03/08 14:02:44;;;;;;;6.73;5.37;;;;;;;;;;5094483;28;20649;-63
2022/03/08 14:05:10;;;;;;;5.30;4.80;;;;;;;;;;5094695;28;20264;-63
2022/03/08 14:07:36;;;;;;;5.67;4.90;;;;;;;;;;5094597;28;20197;-63
2022/03/08 14:10:03;;;;;;;5.90;4.97;;;;;;;;;;5094305;28;20292;-63
2022/03/08 14:12:45;;;;;;;6.97;4.63;;;;;;;;;;5076251;28;20234;-63
2022/03/08 14:15:11;;;;;;;6.23;5.10;;;;;;;;;;5075756;28;20176;-63
2022/03/08 14:17:39;;;;;;;5.20;4.53;;;;;;;;;;5094551;28;20318;-63
2022/03/08 14:20:15;;;;;;;5.80;4.20;;;;;;;;;;5094135;28;20204;-63
2022/03/08 14:22:59;;;;;;;5.83;4.57;;;;;;;;;;5094131;28;20177;-63
2022/03/08 14:25:26;;;;;;;6.83;4.80;;;;;;;;;;5094164;28;20181;-63
2022/03/08 14:27:52;;;;;;;7.90;4.90;;;;;;;;;;5094288;28;20205;-66
2022/03/08 14:30:22;;;;;;;7.80;5.00;;;;;;;;;;5075727;28;20216;-65
2022/03/08 14:32:48;;;;;;;5.93;4.67;;;;;;;;;;5094344;28;20653;-64
2022/03/08 14:35:24;;;;;;;6.07;4.53;;;;;;;;;;5093966;28;20208;-64
2022/03/08 14:38:01;;;;;;;7.97;5.37;;;;;;;;;;5075767;28;20176;-64
2022/03/08 14:40:38;;;;;;;4.97;3.77;;;;;;;;;;5094178;28;20219;-64
2022/03/08 14:43:05;;;;;;;6.33;4.73;;;;;;;;;;5094119;28;20180;-64